sensor_id;sensor_type;location;lat;lon;timestamp;temperature;humidity
8008;DHT22;4049;49.468;11.200;2022-12-18T00:00:40;-11.90;99.90
8008;DHT22;4049;49.468;11.200;2022-12-18T00:03:07;-11.90;99.90
8008;DHT22;4049;49.468;11.200;2022-12-18T00:05:34;-11.90;99.90
8008;DHT22;4049;49.468;11.200;2022-12-18T00:08:01;-11.90;99.90
8008;DHT22;4049;49.468;11.200;2022-12-18T00:10:29;-11.90;99.90
8008;DHT22;4049;49.468;11.200;2022-12-18T00:12:56;-11.90;99.90
8008;DHT22;4049;49.468;11.200;2022-12-18T00:15:23;-11.90;99.90
8008;DHT22;4049;49.468;11.200;2022-12-18T00:17:49;-11.90;99.90
8008;DHT22;4049;49.468;11.200;2022-12-18T00:20:16;-11.90;99.90
8008;DHT22;4049;49.468;11.200;2022-12-18T00:22:50;-11.90;99.90
8008;DHT22;4049;49.468;11.200;2022-12-18T00:25:17;-11.90;99.90
8008;DHT22;4049;49.468;11.200;2022-12-18T00:27:46;-11.90;99.90
8008;DHT22;4049;49.468;11.200;2022-12-18T00:30:13;-11.90;99.90
8008;DHT22;4049;49.468;11.200;2022-12-18T00:32:40;-11.90;99.90
8008;DHT22;4049;49.468;11.200;2022-12-18T00:35:07;-12.00;99.90
8008;DHT22;4049;49.468;11.200;2022-12-18T00:37:34;-12.00;99.90
8008;DHT22;4049;49.468;11.200;2022-12-18T00:40:01;-12.00;99.90
8008;DHT22;4049;49.468;11.200;2022-12-18T00:42:28;-12.10;99.90
8008;DHT22;4049;49.468;11.200;2022-12-18T00:45:14;-12.10;99.90
8008;DHT22;4049;49.468;11.200;2022-12-18T00:47:41;-12.10;99.90
8008;DHT22;4049;49.468;11.200;2022-12-18T00:50:09;-12.10;99.90
8008;DHT22;4049;49.468;11.200;2022-12-18T00:52:36;-12.10;99.90
8008;DHT22;4049;49.468;11.200;2022-12-18T00:55:03;-12.20;99.90
8008;DHT22;4049;49.468;11.200;2022-12-18T00:57:30;-12.20;99.90
8008;DHT22;4049;49.468;11.200;2022-12-18T00:59:57;-12.20;99.90
8008;DHT22;4049;49.468;11.200;2022-12-18T01:02:25;-12.20;99.90
8008;DHT22;4049;49.468;11.200;2022-12-18T01:04:52;-12.20;99.90
8008;DHT22;4049;49.468;11.200;2022-12-18T01:07:18;-12.30;99.90
8008;DHT22;4049;49.468;11.200;2022-12-18T01:09:45;-12.30;99.90
8008;DHT22;4049;49.468;11.200;2022-12-18T01:12:12;-12.30;99.90
8008;DHT22;4049;49.468;11.200;2022-12-18T01:14:39;-12.30;99.90
8008;DHT22;4049;49.468;11.200;2022-12-18T01:17:06;-12.30;99.90
8008;DHT22;4049;49.468;11.200;2022-12-18T01:19:34;-12.30;99.90
8008;DHT22;4049;49.468;11.200;2022-12-18T01:22:01;-12.30;99.90
8008;DHT22;4049;49.468;11.200;2022-12-18T01:24:27;-12.30;99.90
8008;DHT22;4049;49.468;11.200;2022-12-18T01:26:54;-12.30;99.90
8008;DHT22;4049;49.468;11.200;2022-12-18T01:29:22;-12.40;99.90
8008;DHT22;4049;49.468;11.200;2022-12-18T01:31:49;-12.40;99.90
8008;DHT22;4049;49.468;11.200;2022-12-18T01:34:16;-12.40;99.90
8008;DHT22;4049;49.468;11.200;2022-12-18T01:36:44;-12.50;99.90
8008;DHT22;4049;49.468;11.200;2022-12-18T01:39:12;-12.50;99.90
8008;DHT22;4049;49.468;11.200;2022-12-18T01:41:40;-12.50;99.90
8008;DHT22;4049;49.468;11.200;2022-12-18T01:47:34;-12.60;99.90
8008;DHT22;4049;49.468;11.200;2022-12-18T01:50:04;-12.60;99.90
8008;DHT22;4049;49.468;11.200;2022-12-18T01:52:34;-12.60;99.90
8008;DHT22;4049;49.468;11.200;2022-12-18T01:55:04;-12.60;99.90
8008;DHT22;4049;49.468;11.200;2022-12-18T01:57:31;-12.60;99.90
8008;DHT22;4049;49.468;11.200;2022-12-18T02:00:03;-12.60;99.90
8008;DHT22;4049;49.468;11.200;2022-12-18T02:02:31;-12.70;99.90
8008;DHT22;4049;49.468;11.200;2022-12-18T02:04:58;-12.70;99.90
8008;DHT22;4049;49.468;11.200;2022-12-18T02:07:32;-12.70;99.90
8008;DHT22;4049;49.468;11.200;2022-12-18T02:10:06;-12.70;99.90
8008;DHT22;4049;49.468;11.200;2022-12-18T02:12:43;-12.80;99.90
8008;DHT22;4049;49.468;11.200;2022-12-18T02:15:14;-12.80;99.90
8008;DHT22;4049;49.468;11.200;2022-12-18T02:17:45;-12.80;99.90
8008;DHT22;4049;49.468;11.200;2022-12-18T02:20:17;-12.80;99.90
8008;DHT22;4049;49.468;11.200;2022-12-18T02:22:57;-12.90;99.90
8008;DHT22;4049;49.468;11.200;2022-12-18T02:28:26;-12.90;99.90
8008;DHT22;4049;49.468;11.200;2022-12-18T02:30:56;-12.90;99.90
8008;DHT22;4049;49.468;11.200;2022-12-18T02:33:25;-13.00;99.90
8008;DHT22;4049;49.468;11.200;2022-12-18T02:35:54;-13.00;99.90
8008;DHT22;4049;49.468;11.200;2022-12-18T02:38:23;-12.90;99.90
8008;DHT22;4049;49.468;11.200;2022-12-18T02:40:51;-13.00;99.90
8008;DHT22;4049;49.468;11.200;2022-12-18T02:43:20;-13.00;99.90
8008;DHT22;4049;49.468;11.200;2022-12-18T02:45:50;-13.00;99.90
8008;DHT22;4049;49.468;11.200;2022-12-18T02:48:21;-13.00;99.90
8008;DHT22;4049;49.468;11.200;2022-12-18T02:50:53;-13.00;99.90
8008;DHT22;4049;49.468;11.200;2022-12-18T02:53:30;-13.00;99.90
8008;DHT22;4049;49.468;11.200;2022-12-18T02:56:05;-13.00;99.90
8008;DHT22;4049;49.468;11.200;2022-12-18T02:58:40;-13.00;99.90
8008;DHT22;4049;49.468;11.200;2022-12-18T03:01:15;-13.00;99.90
8008;DHT22;4049;49.468;11.200;2022-12-18T03:03:47;-13.10;99.90
8008;DHT22;4049;49.468;11.200;2022-12-18T03:06:21;-13.10;99.90
8008;DHT22;4049;49.468;11.200;2022-12-18T03:08:53;-13.10;99.90
8008;DHT22;4049;49.468;11.200;2022-12-18T03:11:22;-13.10;99.90
8008;DHT22;4049;49.468;11.200;2022-12-18T03:14:07;-13.10;99.90
8008;DHT22;4049;49.468;11.200;2022-12-18T03:16:36;-13.10;99.90
8008;DHT22;4049;49.468;11.200;2022-12-18T03:19:06;-13.10;99.90
8008;DHT22;4049;49.468;11.200;2022-12-18T03:21:36;-13.00;99.90
8008;DHT22;4049;49.468;11.200;2022-12-18T03:24:06;-13.00;99.90
8008;DHT22;4049;49.468;11.200;2022-12-18T03:26:35;-13.00;99.90
8008;DHT22;4049;49.468;11.200;2022-12-18T03:29:06;-13.00;99.90
8008;DHT22;4049;49.468;11.200;2022-12-18T03:31:39;-13.00;99.90
8008;DHT22;4049;49.468;11.200;2022-12-18T03:34:12;-12.90;99.90
8008;DHT22;4049;49.468;11.200;2022-12-18T03:36:40;-12.90;99.90
8008;DHT22;4049;49.468;11.200;2022-12-18T03:39:07;-12.90;99.90
8008;DHT22;4049;49.468;11.200;2022-12-18T03:41:38;-12.90;99.90
8008;DHT22;4049;49.468;11.200;2022-12-18T03:44:14;-12.90;99.90
8008;DHT22;4049;49.468;11.200;2022-12-18T03:46:53;-12.80;99.90
8008;DHT22;4049;49.468;11.200;2022-12-18T03:49:25;-12.70;99.90
8008;DHT22;4049;49.468;11.200;2022-12-18T03:52:01;-12.70;99.90
8008;DHT22;4049;49.468;11.200;2022-12-18T03:54:30;-12.70;99.90
8008;DHT22;4049;49.468;11.200;2022-12-18T03:57:01;-12.60;99.90
8008;DHT22;4049;49.468;11.200;2022-12-18T03:59:30;-12.60;99.90
8008;DHT22;4049;49.468;11.200;2022-12-18T04:01:59;-12.50;99.90
8008;DHT22;4049;49.468;11.200;2022-12-18T04:04:28;-12.40;99.90
8008;DHT22;4049;49.468;11.200;2022-12-18T04:06:57;-12.40;99.90
8008;DHT22;4049;49.468;11.200;2022-12-18T04:09:25;-12.30;99.90
8008;DHT22;4049;49.468;11.200;2022-12-18T04:11:52;-12.30;99.90
8008;DHT22;4049;49.468;11.200;2022-12-18T04:14:19;-12.30;99.90
8008;DHT22;4049;49.468;11.200;2022-12-18T04:16:46;-12.20;99.90
8008;DHT22;4049;49.468;11.200;2022-12-18T04:19:15;-12.20;99.90
8008;DHT22;4049;49.468;11.200;2022-12-18T04:21:41;-12.10;99.90
8008;DHT22;4049;49.468;11.200;2022-12-18T04:24:08;-12.10;99.90
8008;DHT22;4049;49.468;11.200;2022-12-18T04:26:35;-12.00;99.90
8008;DHT22;4049;49.468;11.200;2022-12-18T04:29:02;-12.00;99.90
8008;DHT22;4049;49.468;11.200;2022-12-18T04:31:29;-11.90;99.90
8008;DHT22;4049;49.468;11.200;2022-12-18T04:33:56;-11.90;99.90
8008;DHT22;4049;49.468;11.200;2022-12-18T04:36:24;-11.80;99.90
8008;DHT22;4049;49.468;11.200;2022-12-18T04:38:50;-11.80;99.90
8008;DHT22;4049;49.468;11.200;2022-12-18T04:41:17;-11.70;99.90
8008;DHT22;4049;49.468;11.200;2022-12-18T04:43:44;-11.70;99.90
8008;DHT22;4049;49.468;11.200;2022-12-18T04:46:11;-11.60;99.90
8008;DHT22;4049;49.468;11.200;2022-12-18T04:48:39;-11.60;99.90
8008;DHT22;4049;49.468;11.200;2022-12-18T04:51:06;-11.50;99.90
8008;DHT22;4049;49.468;11.200;2022-12-18T04:53:35;-11.50;99.90
8008;DHT22;4049;49.468;11.200;2022-12-18T04:56:03;-11.40;99.90
8008;DHT22;4049;49.468;11.200;2022-12-18T04:58:30;-11.40;99.90
8008;DHT22;4049;49.468;11.200;2022-12-18T05:00:57;-11.30;99.90
8008;DHT22;4049;49.468;11.200;2022-12-18T05:03:24;-11.30;99.90
8008;DHT22;4049;49.468;11.200;2022-12-18T05:05:51;-11.20;99.90
8008;DHT22;4049;49.468;11.200;2022-12-18T05:08:18;-11.20;99.90
8008;DHT22;4049;49.468;11.200;2022-12-18T05:10:46;-11.10;99.90
8008;DHT22;4049;49.468;11.200;2022-12-18T05:13:13;-11.10;99.90
8008;DHT22;4049;49.468;11.200;2022-12-18T05:15:40;-11.00;99.90
8008;DHT22;4049;49.468;11.200;2022-12-18T05:18:08;-11.00;99.90
8008;DHT22;4049;49.468;11.200;2022-12-18T05:20:35;-11.00;99.90
8008;DHT22;4049;49.468;11.200;2022-12-18T05:23:02;-10.90;99.90
8008;DHT22;4049;49.468;11.200;2022-12-18T05:25:28;-10.90;99.90
8008;DHT22;4049;49.468;11.200;2022-12-18T05:27:57;-10.80;99.90
8008;DHT22;4049;49.468;11.200;2022-12-18T05:30:23;-10.70;99.90
8008;DHT22;4049;49.468;11.200;2022-12-18T05:32:50;-10.70;99.90
8008;DHT22;4049;49.468;11.200;2022-12-18T05:35:17;-10.60;99.90
8008;DHT22;4049;49.468;11.200;2022-12-18T05:37:44;-10.60;99.90
8008;DHT22;4049;49.468;11.200;2022-12-18T05:40:11;-10.60;99.90
8008;DHT22;4049;49.468;11.200;2022-12-18T05:42:38;-10.50;99.90
8008;DHT22;4049;49.468;11.200;2022-12-18T05:45:07;-10.50;99.90
8008;DHT22;4049;49.468;11.200;2022-12-18T05:47:34;-10.40;99.90
8008;DHT22;4049;49.468;11.200;2022-12-18T05:50:01;-10.30;99.90
8008;DHT22;4049;49.468;11.200;2022-12-18T05:52:28;-10.30;99.90
8008;DHT22;4049;49.468;11.200;2022-12-18T05:54:55;-10.20;99.90
8008;DHT22;4049;49.468;11.200;2022-12-18T05:57:22;-10.20;99.90
8008;DHT22;4049;49.468;11.200;2022-12-18T05:59:49;-10.10;99.90
8008;DHT22;4049;49.468;11.200;2022-12-18T06:02:17;-10.10;99.90
8008;DHT22;4049;49.468;11.200;2022-12-18T06:04:46;-10.00;99.90
8008;DHT22;4049;49.468;11.200;2022-12-18T06:07:13;-9.90;99.90
8008;DHT22;4049;49.468;11.200;2022-12-18T06:09:40;-9.90;99.90
8008;DHT22;4049;49.468;11.200;2022-12-18T06:12:07;-9.80;99.90
8008;DHT22;4049;49.468;11.200;2022-12-18T06:14:33;-9.80;99.90
8008;DHT22;4049;49.468;11.200;2022-12-18T06:17:00;-9.70;99.90
8008;DHT22;4049;49.468;11.200;2022-12-18T06:19:28;-9.70;99.90
8008;DHT22;4049;49.468;11.200;2022-12-18T06:21:55;-9.60;99.90
8008;DHT22;4049;49.468;11.200;2022-12-18T06:24:24;-9.60;99.90
8008;DHT22;4049;49.468;11.200;2022-12-18T06:26:51;-9.50;99.90
8008;DHT22;4049;49.468;11.200;2022-12-18T06:29:17;-9.50;99.90
8008;DHT22;4049;49.468;11.200;2022-12-18T06:31:44;-9.50;99.90
8008;DHT22;4049;49.468;11.200;2022-12-18T06:34:11;-9.40;99.90
8008;DHT22;4049;49.468;11.200;2022-12-18T06:36:39;-9.40;99.90
8008;DHT22;4049;49.468;11.200;2022-12-18T06:39:06;-9.40;99.90
8008;DHT22;4049;49.468;11.200;2022-12-18T06:41:33;-9.30;99.90
8008;DHT22;4049;49.468;11.200;2022-12-18T06:44:00;-9.30;99.90
8008;DHT22;4049;49.468;11.200;2022-12-18T06:46:27;-9.20;99.90
8008;DHT22;4049;49.468;11.200;2022-12-18T06:48:53;-9.20;99.90
8008;DHT22;4049;49.468;11.200;2022-12-18T06:51:21;-9.10;99.90
8008;DHT22;4049;49.468;11.200;2022-12-18T06:53:50;-9.10;99.90
8008;DHT22;4049;49.468;11.200;2022-12-18T06:56:17;-9.00;99.90
8008;DHT22;4049;49.468;11.200;2022-12-18T06:58:44;-9.00;99.90
8008;DHT22;4049;49.468;11.200;2022-12-18T07:01:11;-9.00;99.90
8008;DHT22;4049;49.468;11.200;2022-12-18T07:03:39;-8.90;99.90
8008;DHT22;4049;49.468;11.200;2022-12-18T07:06:11;-8.90;99.90
8008;DHT22;4049;49.468;11.200;2022-12-18T07:08:38;-8.90;99.90
8008;DHT22;4049;49.468;11.200;2022-12-18T07:11:07;-8.80;99.90
8008;DHT22;4049;49.468;11.200;2022-12-18T07:13:33;-8.80;99.90
8008;DHT22;4049;49.468;11.200;2022-12-18T07:16:05;-8.80;99.90
8008;DHT22;4049;49.468;11.200;2022-12-18T07:18:32;-8.70;99.90
8008;DHT22;4049;49.468;11.200;2022-12-18T07:21:02;-8.70;99.90
8008;DHT22;4049;49.468;11.200;2022-12-18T07:23:29;-8.70;99.90
8008;DHT22;4049;49.468;11.200;2022-12-18T07:26:04;-8.70;99.90
8008;DHT22;4049;49.468;11.200;2022-12-18T07:28:33;-8.60;99.90
8008;DHT22;4049;49.468;11.200;2022-12-18T07:31:02;-8.60;99.90
8008;DHT22;4049;49.468;11.200;2022-12-18T07:33:29;-8.60;99.90
8008;DHT22;4049;49.468;11.200;2022-12-18T07:35:56;-8.50;99.90
8008;DHT22;4049;49.468;11.200;2022-12-18T07:38:24;-8.50;99.90
8008;DHT22;4049;49.468;11.200;2022-12-18T07:40:51;-8.40;99.90
8008;DHT22;4049;49.468;11.200;2022-12-18T07:43:18;-8.40;99.90
8008;DHT22;4049;49.468;11.200;2022-12-18T07:45:49;-8.40;99.90
8008;DHT22;4049;49.468;11.200;2022-12-18T07:48:16;-8.30;99.90
8008;DHT22;4049;49.468;11.200;2022-12-18T07:50:42;-8.20;99.90
8008;DHT22;4049;49.468;11.200;2022-12-18T07:53:09;-8.20;99.90
8008;DHT22;4049;49.468;11.200;2022-12-18T07:55:36;-8.20;99.90
8008;DHT22;4049;49.468;11.200;2022-12-18T07:58:04;-8.20;99.90
8008;DHT22;4049;49.468;11.200;2022-12-18T08:00:31;-8.10;99.90
8008;DHT22;4049;49.468;11.200;2022-12-18T08:02:59;-8.10;99.90
8008;DHT22;4049;49.468;11.200;2022-12-18T08:05:26;-8.00;99.90
8008;DHT22;4049;49.468;11.200;2022-12-18T08:07:53;-8.00;99.90
8008;DHT22;4049;49.468;11.200;2022-12-18T08:10:21;-7.90;99.90
8008;DHT22;4049;49.468;11.200;2022-12-18T08:12:49;-7.90;99.90
8008;DHT22;4049;49.468;11.200;2022-12-18T08:15:17;-7.80;99.90
8008;DHT22;4049;49.468;11.200;2022-12-18T08:17:43;-7.80;99.90
8008;DHT22;4049;49.468;11.200;2022-12-18T08:20:12;-7.70;99.90
8008;DHT22;4049;49.468;11.200;2022-12-18T08:22:40;-7.60;99.90
8008;DHT22;4049;49.468;11.200;2022-12-18T08:25:08;-7.60;99.90
8008;DHT22;4049;49.468;11.200;2022-12-18T08:27:35;-7.50;99.90
8008;DHT22;4049;49.468;11.200;2022-12-18T08:30:03;-7.50;99.90
8008;DHT22;4049;49.468;11.200;2022-12-18T08:32:30;-7.40;99.90
8008;DHT22;4049;49.468;11.200;2022-12-18T08:34:58;-7.40;99.90
8008;DHT22;4049;49.468;11.200;2022-12-18T08:37:26;-7.30;99.90
8008;DHT22;4049;49.468;11.200;2022-12-18T08:39:53;-7.30;99.90
8008;DHT22;4049;49.468;11.200;2022-12-18T08:42:20;-7.20;99.90
8008;DHT22;4049;49.468;11.200;2022-12-18T08:45:04;-7.20;99.90
8008;DHT22;4049;49.468;11.200;2022-12-18T08:47:31;-7.10;99.90
8008;DHT22;4049;49.468;11.200;2022-12-18T08:49:58;-7.00;99.90
8008;DHT22;4049;49.468;11.200;2022-12-18T08:52:26;-6.90;99.90
8008;DHT22;4049;49.468;11.200;2022-12-18T08:54:53;-6.80;99.90
8008;DHT22;4049;49.468;11.200;2022-12-18T08:57:20;-6.70;99.90
8008;DHT22;4049;49.468;11.200;2022-12-18T08:59:47;-6.60;99.90
8008;DHT22;4049;49.468;11.200;2022-12-18T09:02:14;-6.60;99.90
8008;DHT22;4049;49.468;11.200;2022-12-18T09:04:41;-6.50;99.90
8008;DHT22;4049;49.468;11.200;2022-12-18T09:07:08;-6.50;99.90
8008;DHT22;4049;49.468;11.200;2022-12-18T09:09:37;-6.40;99.90
8008;DHT22;4049;49.468;11.200;2022-12-18T09:12:04;-6.30;99.90
8008;DHT22;4049;49.468;11.200;2022-12-18T09:14:31;-6.20;99.90
8008;DHT22;4049;49.468;11.200;2022-12-18T09:16:57;-6.20;99.90
8008;DHT22;4049;49.468;11.200;2022-12-18T09:19:24;-6.10;99.90
8008;DHT22;4049;49.468;11.200;2022-12-18T09:21:54;-6.00;99.90
8008;DHT22;4049;49.468;11.200;2022-12-18T09:24:21;-6.00;99.90
8008;DHT22;4049;49.468;11.200;2022-12-18T09:26:53;-5.90;99.90
8008;DHT22;4049;49.468;11.200;2022-12-18T09:29:20;-5.80;99.90
8008;DHT22;4049;49.468;11.200;2022-12-18T09:31:47;-5.80;99.90
8008;DHT22;4049;49.468;11.200;2022-12-18T09:34:15;-5.70;99.90
8008;DHT22;4049;49.468;11.200;2022-12-18T09:36:42;-5.60;99.90
8008;DHT22;4049;49.468;11.200;2022-12-18T09:39:09;-5.50;99.90
8008;DHT22;4049;49.468;11.200;2022-12-18T09:41:46;-5.40;99.90
8008;DHT22;4049;49.468;11.200;2022-12-18T09:44:25;-5.30;99.90
8008;DHT22;4049;49.468;11.200;2022-12-18T09:47:07;-5.10;99.90
8008;DHT22;4049;49.468;11.200;2022-12-18T09:49:39;-5.00;99.90
8008;DHT22;4049;49.468;11.200;2022-12-18T09:52:11;-4.90;99.90
8008;DHT22;4049;49.468;11.200;2022-12-18T09:54:46;-4.70;99.90
8008;DHT22;4049;49.468;11.200;2022-12-18T09:57:18;-4.50;99.90
8008;DHT22;4049;49.468;11.200;2022-12-18T09:59:53;-4.40;99.90
8008;DHT22;4049;49.468;11.200;2022-12-18T10:02:22;-4.20;99.90
8008;DHT22;4049;49.468;11.200;2022-12-18T10:05:10;-4.10;99.90
8008;DHT22;4049;49.468;11.200;2022-12-18T10:07:50;-3.90;99.90
8008;DHT22;4049;49.468;11.200;2022-12-18T10:10:27;-3.80;99.90
8008;DHT22;4049;49.468;11.200;2022-12-18T10:13:00;-3.70;99.90
8008;DHT22;4049;49.468;11.200;2022-12-18T10:15:34;-3.70;99.90
8008;DHT22;4049;49.468;11.200;2022-12-18T10:18:10;-3.60;99.90
8008;DHT22;4049;49.468;11.200;2022-12-18T10:20:44;-3.60;99.90
8008;DHT22;4049;49.468;11.200;2022-12-18T10:23:16;-3.50;99.90
8008;DHT22;4049;49.468;11.200;2022-12-18T10:25:53;-3.50;99.90
8008;DHT22;4049;49.468;11.200;2022-12-18T10:28:23;-3.50;99.90
8008;DHT22;4049;49.468;11.200;2022-12-18T10:30:52;-3.40;99.90
8008;DHT22;4049;49.468;11.200;2022-12-18T10:33:21;-3.30;99.90
8008;DHT22;4049;49.468;11.200;2022-12-18T10:35:50;-3.30;99.90
8008;DHT22;4049;49.468;11.200;2022-12-18T10:38:24;-3.20;99.90
8008;DHT22;4049;49.468;11.200;2022-12-18T10:40:53;-3.20;99.90
8008;DHT22;4049;49.468;11.200;2022-12-18T10:43:23;-3.10;99.90
8008;DHT22;4049;49.468;11.200;2022-12-18T10:46:14;-3.00;99.90
8008;DHT22;4049;49.468;11.200;2022-12-18T10:48:53;-2.90;99.90
8008;DHT22;4049;49.468;11.200;2022-12-18T10:51:22;-2.90;99.90
8008;DHT22;4049;49.468;11.200;2022-12-18T10:53:56;-2.80;99.90
8008;DHT22;4049;49.468;11.200;2022-12-18T10:56:26;-2.80;99.90
8008;DHT22;4049;49.468;11.200;2022-12-18T10:58:59;-2.80;99.90
8008;DHT22;4049;49.468;11.200;2022-12-18T11:01:28;-2.90;99.90
8008;DHT22;4049;49.468;11.200;2022-12-18T11:04:01;-2.90;99.90
8008;DHT22;4049;49.468;11.200;2022-12-18T11:06:29;-3.00;99.90
8008;DHT22;4049;49.468;11.200;2022-12-18T11:09:00;-2.90;99.90
8008;DHT22;4049;49.468;11.200;2022-12-18T11:11:27;-2.80;99.90
8008;DHT22;4049;49.468;11.200;2022-12-18T11:14:01;-2.90;99.90
8008;DHT22;4049;49.468;11.200;2022-12-18T11:16:33;-2.80;99.90
8008;DHT22;4049;49.468;11.200;2022-12-18T11:19:20;-2.80;99.90
8008;DHT22;4049;49.468;11.200;2022-12-18T11:21:50;-2.50;99.90
8008;DHT22;4049;49.468;11.200;2022-12-18T11:24:29;-2.30;99.90
8008;DHT22;4049;49.468;11.200;2022-12-18T11:26:57;-2.10;99.90
8008;DHT22;4049;49.468;11.200;2022-12-18T11:29:31;-1.80;99.90
8008;DHT22;4049;49.468;11.200;2022-12-18T11:32:34;-1.60;99.90
8008;DHT22;4049;49.468;11.200;2022-12-18T11:35:14;-1.40;99.90
8008;DHT22;4049;49.468;11.200;2022-12-18T11:37:47;-1.10;99.90
8008;DHT22;4049;49.468;11.200;2022-12-18T11:40:17;-0.90;99.90
8008;DHT22;4049;49.468;11.200;2022-12-18T11:42:48;-0.70;99.90
8008;DHT22;4049;49.468;11.200;2022-12-18T11:45:28;-0.60;99.90
8008;DHT22;4049;49.468;11.200;2022-12-18T11:48:04;-0.40;99.90
8008;DHT22;4049;49.468;11.200;2022-12-18T11:50:41;-0.20;99.90
8008;DHT22;4049;49.468;11.200;2022-12-18T11:53:13;0.10;99.90
8008;DHT22;4049;49.468;11.200;2022-12-18T11:55:47;0.30;99.90
8008;DHT22;4049;49.468;11.200;2022-12-18T11:58:33;0.40;99.90
8008;DHT22;4049;49.468;11.200;2022-12-18T12:01:06;0.60;99.90
8008;DHT22;4049;49.468;11.200;2022-12-18T12:03:57;0.70;99.90
8008;DHT22;4049;49.468;11.200;2022-12-18T12:06:36;0.60;99.90
8008;DHT22;4049;49.468;11.200;2022-12-18T12:09:14;0.40;99.90
8008;DHT22;4049;49.468;11.200;2022-12-18T12:11:52;0.20;99.90
8008;DHT22;4049;49.468;11.200;2022-12-18T12:14:37;0.00;99.90
8008;DHT22;4049;49.468;11.200;2022-12-18T12:17:11;-0.10;99.90
8008;DHT22;4049;49.468;11.200;2022-12-18T12:19:48;-0.30;99.90
8008;DHT22;4049;49.468;11.200;2022-12-18T12:22:24;-0.40;99.90
8008;DHT22;4049;49.468;11.200;2022-12-18T12:25:02;-0.50;99.90
8008;DHT22;4049;49.468;11.200;2022-12-18T12:27:39;-0.60;99.90
8008;DHT22;4049;49.468;11.200;2022-12-18T12:30:15;-0.70;99.90
8008;DHT22;4049;49.468;11.200;2022-12-18T12:32:52;-0.80;99.90
8008;DHT22;4049;49.468;11.200;2022-12-18T12:35:29;-0.90;99.90
8008;DHT22;4049;49.468;11.200;2022-12-18T12:38:06;-0.90;99.90
8008;DHT22;4049;49.468;11.200;2022-12-18T12:40:37;-0.90;99.90
8008;DHT22;4049;49.468;11.200;2022-12-18T12:43:20;-0.90;99.90
8008;DHT22;4049;49.468;11.200;2022-12-18T12:45:49;-0.90;99.90
8008;DHT22;4049;49.468;11.200;2022-12-18T12:48:26;-0.80;99.90
8008;DHT22;4049;49.468;11.200;2022-12-18T12:50:56;-0.80;99.90
8008;DHT22;4049;49.468;11.200;2022-12-18T12:53:30;-0.80;99.90
8008;DHT22;4049;49.468;11.200;2022-12-18T12:55:59;-0.80;99.90
8008;DHT22;4049;49.468;11.200;2022-12-18T12:58:33;-0.70;99.90
8008;DHT22;4049;49.468;11.200;2022-12-18T13:01:08;-0.70;99.90
8008;DHT22;4049;49.468;11.200;2022-12-18T13:03:44;-0.70;99.90
8008;DHT22;4049;49.468;11.200;2022-12-18T13:06:18;-0.80;99.90
8008;DHT22;4049;49.468;11.200;2022-12-18T13:08:55;-0.80;99.90
8008;DHT22;4049;49.468;11.200;2022-12-18T13:11:31;-0.90;99.90
8008;DHT22;4049;49.468;11.200;2022-12-18T13:14:22;-0.90;99.90
8008;DHT22;4049;49.468;11.200;2022-12-18T13:16:49;-1.00;99.90
8008;DHT22;4049;49.468;11.200;2022-12-18T13:19:21;-1.10;99.90
8008;DHT22;4049;49.468;11.200;2022-12-18T13:21:54;-1.10;99.90
8008;DHT22;4049;49.468;11.200;2022-12-18T13:24:25;-1.20;99.90
8008;DHT22;4049;49.468;11.200;2022-12-18T13:26:52;-1.30;99.90
8008;DHT22;4049;49.468;11.200;2022-12-18T13:29:46;-1.40;99.90
8008;DHT22;4049;49.468;11.200;2022-12-18T13:32:21;-1.40;99.90
8008;DHT22;4049;49.468;11.200;2022-12-18T13:34:48;-1.40;99.90
8008;DHT22;4049;49.468;11.200;2022-12-18T13:37:42;-1.50;99.90
8008;DHT22;4049;49.468;11.200;2022-12-18T13:43:30;-1.60;99.90
8008;DHT22;4049;49.468;11.200;2022-12-18T13:46:18;-1.60;99.90
8008;DHT22;4049;49.468;11.200;2022-12-18T13:49:00;-1.60;99.90
8008;DHT22;4049;49.468;11.200;2022-12-18T13:51:29;-1.60;99.90
8008;DHT22;4049;49.468;11.200;2022-12-18T13:54:00;-1.60;99.90
8008;DHT22;4049;49.468;11.200;2022-12-18T13:56:29;-1.70;99.90
8008;DHT22;4049;49.468;11.200;2022-12-18T13:59:17;-1.70;99.90
8008;DHT22;4049;49.468;11.200;2022-12-18T14:01:47;-1.80;99.90
8008;DHT22;4049;49.468;11.200;2022-12-18T14:04:21;-1.80;99.90
8008;DHT22;4049;49.468;11.200;2022-12-18T14:06:50;-1.90;99.90
8008;DHT22;4049;49.468;11.200;2022-12-18T14:09:23;-1.90;99.90
8008;DHT22;4049;49.468;11.200;2022-12-18T14:11:51;-2.00;99.90
8008;DHT22;4049;49.468;11.200;2022-12-18T14:14:42;-2.00;99.90
8008;DHT22;4049;49.468;11.200;2022-12-18T14:17:11;-2.00;99.90
8008;DHT22;4049;49.468;11.200;2022-12-18T14:19:42;-2.00;99.90
8008;DHT22;4049;49.468;11.200;2022-12-18T14:22:15;-2.10;99.90
8008;DHT22;4049;49.468;11.200;2022-12-18T14:24:44;-2.10;99.90
8008;DHT22;4049;49.468;11.200;2022-12-18T14:27:22;-2.20;99.90
8008;DHT22;4049;49.468;11.200;2022-12-18T14:29:49;-2.20;99.90
8008;DHT22;4049;49.468;11.200;2022-12-18T14:32:20;-2.20;99.90
8008;DHT22;4049;49.468;11.200;2022-12-18T14:34:49;-2.30;99.90
8008;DHT22;4049;49.468;11.200;2022-12-18T14:37:17;-2.30;99.90
8008;DHT22;4049;49.468;11.200;2022-12-18T14:39:56;-2.30;99.90
8008;DHT22;4049;49.468;11.200;2022-12-18T14:42:24;-2.40;99.90
8008;DHT22;4049;49.468;11.200;2022-12-18T14:47:53;-2.40;99.90
8008;DHT22;4049;49.468;11.200;2022-12-18T14:50:20;-2.50;99.90
8008;DHT22;4049;49.468;11.200;2022-12-18T14:52:46;-2.50;99.90
8008;DHT22;4049;49.468;11.200;2022-12-18T14:55:17;-2.60;99.90
8008;DHT22;4049;49.468;11.200;2022-12-18T14:57:45;-2.60;99.90
8008;DHT22;4049;49.468;11.200;2022-12-18T15:00:17;-2.60;99.90
8008;DHT22;4049;49.468;11.200;2022-12-18T15:02:45;-2.70;99.90
8008;DHT22;4049;49.468;11.200;2022-12-18T15:05:18;-2.70;99.90
8008;DHT22;4049;49.468;11.200;2022-12-18T15:07:47;-2.70;99.90
8008;DHT22;4049;49.468;11.200;2022-12-18T15:10:18;-2.80;99.90
8008;DHT22;4049;49.468;11.200;2022-12-18T15:12:47;-2.80;99.90
8008;DHT22;4049;49.468;11.200;2022-12-18T15:15:45;-2.90;99.90
8008;DHT22;4049;49.468;11.200;2022-12-18T15:18:15;-2.90;99.90
8008;DHT22;4049;49.468;11.200;2022-12-18T15:20:44;-3.00;99.90
8008;DHT22;4049;49.468;11.200;2022-12-18T15:23:19;-3.00;99.90
8008;DHT22;4049;49.468;11.200;2022-12-18T15:25:54;-3.00;99.90
8008;DHT22;4049;49.468;11.200;2022-12-18T15:28:24;-3.10;99.90
8008;DHT22;4049;49.468;11.200;2022-12-18T15:31:04;-3.20;99.90
8008;DHT22;4049;49.468;11.200;2022-12-18T15:33:33;-3.20;99.90
8008;DHT22;4049;49.468;11.200;2022-12-18T15:36:01;-3.20;99.90
8008;DHT22;4049;49.468;11.200;2022-12-18T15:38:29;-3.30;99.90
8008;DHT22;4049;49.468;11.200;2022-12-18T15:40:57;-3.30;99.90
8008;DHT22;4049;49.468;11.200;2022-12-18T15:43:25;-3.30;99.90
8008;DHT22;4049;49.468;11.200;2022-12-18T15:46:02;-3.40;99.90
8008;DHT22;4049;49.468;11.200;2022-12-18T15:48:29;-3.40;99.90
8008;DHT22;4049;49.468;11.200;2022-12-18T15:50:56;-3.40;99.90
8008;DHT22;4049;49.468;11.200;2022-12-18T15:53:26;-3.50;99.90
8008;DHT22;4049;49.468;11.200;2022-12-18T15:55:54;-3.50;99.90
8008;DHT22;4049;49.468;11.200;2022-12-18T15:58:40;-3.50;99.90
8008;DHT22;4049;49.468;11.200;2022-12-18T16:01:08;-3.60;99.90
8008;DHT22;4049;49.468;11.200;2022-12-18T16:03:36;-3.60;99.90
8008;DHT22;4049;49.468;11.200;2022-12-18T16:06:03;-3.60;99.90
8008;DHT22;4049;49.468;11.200;2022-12-18T16:08:30;-3.70;99.90
8008;DHT22;4049;49.468;11.200;2022-12-18T16:10:57;-3.70;99.90
8008;DHT22;4049;49.468;11.200;2022-12-18T16:13:25;-3.70;99.90